Time;durP1;ratioP1;P1;durP2;ratioP2;P2;SDS_P1;SDS_P2;PMS_P1;PMS_P2;Temp;Humidity;BMP_temperature;BMP_pressure;BME280_temperature;BME280_humidity;BME280_pressure;Samples;Min_cycle;Max_cycle;Signal;HPM_P1;HPM_P2
2023/01/07 00:04:37;;;;;;;17.00;12.40;;;;;;;6.55;86.59;100134.96;208717;1290;140344;-67
2023/01/07 00:09:41;;;;;;;16.10;12.40;;;;;;;6.53;86.73;100139.80;208107;1292;140308;-66
2023/01/07 00:14:45;;;;;;;16.40;12.20;;;;;;;6.47;86.60;100134.59;208670;1278;139559;-67
2023/01/07 00:19:49;;;;;;;21.20;13.10;;;;;;;6.43;86.67;100142.84;208511;1285;140244;-67
2023/01/07 00:24:52;;;;;;;22.80;15.90;;;;;;;6.49;86.48;100139.70;209051;1287;141063;-67
2023/01/07 00:29:57;;;;;;;20.20;15.00;;;;;;;6.50;86.67;100148.87;208207;1294;139687;-67
2023/01/07 00:35:00;;;;;;;24.30;13.70;;;;;;;6.50;87.05;100152.45;207937;1284;139808;-67
2023/01/07 00:40:04;;;;;;;18.10;13.70;;;;;;;6.52;86.84;100158.83;209441;1284;140918;-67
2023/01/07 00:45:09;;;;;;;20.30;15.40;;;;;;;6.52;86.63;100162.45;207969;1294;140673;-67
2023/01/07 00:50:12;;;;;;;19.40;14.90;;;;;;;6.51;86.73;100165.58;208511;1290;140748;-67
2023/01/07 00:55:16;;;;;;;15.50;11.40;;;;;;;6.50;86.75;100165.98;210079;1295;140053;-67
2023/01/07 01:00:21;;;;;;;17.00;12.00;;;;;;;6.53;86.56;100167.39;209833;1295;141205;-67
2023/01/07 01:05:25;;;;;;;16.90;11.90;;;;;;;6.48;86.09;100169.06;208997;1293;140383;-67
2023/01/07 01:10:27;;;;;;;15.90;10.70;;;;;;;6.43;86.17;100167.17;209468;1293;139588;-67
2023/01/07 01:15:32;;;;;;;17.00;9.70;;;;;;;6.40;85.55;100164.48;210594;1295;141023;-67
2023/01/07 01:20:34;;;;;;;11.20;9.70;;;;;;;6.29;85.59;100163.38;210487;1294;141017;-68
2023/01/07 01:25:38;;;;;;;19.10;10.20;;;;;;;6.23;85.46;100164.69;210634;1295;140275;-67
2023/01/07 01:30:42;;;;;;;13.20;7.10;;;;;;;6.16;85.36;100158.24;210804;1295;139866;-67
2023/01/07 01:35:46;;;;;;;12.30;9.30;;;;;;;6.12;85.23;100149.60;209085;1292;140841;-67
2023/01/07 01:40:48;;;;;;;11.80;8.30;;;;;;;6.06;84.92;100151.62;210134;1280;139783;-67
2023/01/07 01:45:53;;;;;;;9.50;7.70;;;;;;;5.92;84.86;100153.46;208794;1286;140433;-67
2023/01/07 01:50:57;;;;;;;8.10;6.40;;;;;;;5.75;84.26;100149.88;208006;1285;138852;-67
2023/01/07 01:56:06;;;;;;;8.30;7.00;;;;;;;5.61;84.48;100151.89;208328;1293;140821;-67
2023/01/07 02:01:09;;;;;;;12.00;8.20;;;;;;;5.44;84.48;100162.38;207845;1285;139410;-67
2023/01/07 02:06:23;;;;;;;10.10;7.20;;;;;;;5.27;84.50;100155.96;208766;1285;221178;-67
2023/01/07 02:11:40;;;;;;;11.30;9.60;;;;;;;5.23;84.79;100160.80;208381;1300;140015;-66
2023/01/07 02:17:07;;;;;;;13.80;9.00;;;;;;;5.21;84.79;100152.91;207966;1286;140368;-67
2023/01/07 02:22:30;;;;;;;9.80;8.20;;;;;;;5.09;84.40;100157.20;208631;1295;140137;-67
2023/01/07 02:28:06;;;;;;;10.90;8.50;;;;;;;4.83;84.11;100154.55;208533;1292;140711;-67
2023/01/07 02:33:26;;;;;;;10.50;8.00;;;;;;;4.60;84.17;100157.11;209074;1284;139095;-67
2023/01/07 02:39:03;;;;;;;10.80;7.40;;;;;;;4.49;84.24;100160.08;208393;1286;140521;-66
2023/01/07 02:44:31;;;;;;;12.80;7.50;;;;;;;4.40;84.19;100160.89;208491;1285;140288;-67
2023/01/07 02:49:35;;;;;;;12.40;7.80;;;;;;;4.26;84.08;100161.17;208625;1291;140288;-67
2023/01/07 02:54:38;;;;;;;13.20;8.50;;;;;;;4.14;84.19;100161.61;208042;1294;139687;-67
2023/01/07 03:00:34;;;;;;;12.20;8.50;;;;;;;4.13;84.74;100160.70;207832;1294;140238;-67
2023/01/07 03:06:00;;;;;;;14.90;8.90;;;;;;;4.18;85.02;100163.88;208118;1294;243546;-67
2023/01/07 03:11:09;;;;;;;8.80;7.00;;;;;;;4.21;85.27;100175.12;208752;1292;140090;-67
2023/01/07 03:16:18;;;;;;;10.30;7.20;;;;;;;4.20;84.97;100179.16;210595;1295;139873;-67
2023/01/07 03:21:24;;;;;;;11.10;6.80;;;;;;;4.27;85.59;100180.02;210613;1295;139860;-67
2023/01/07 03:26:52;;;;;;;16.10;10.10;;;;;;;4.39;85.75;100182.98;210084;1296;140776;-67
2023/01/07 03:32:06;;;;;;;14.20;10.80;;;;;;;4.51;86.22;100183.90;208829;1293;140390;-67
2023/01/07 03:37:13;;;;;;;16.20;10.90;;;;;;;4.64;86.58;100187.54;209638;1299;150145;-67
2023/01/07 03:42:39;;;;;;;;;;;;;;;4.74;86.69;100184.45;209260;1286;151421;-66
2023/01/07 03:47:46;;;;;;;17.20;11.40;;;;;;;4.84;86.93;100173.52;208472;1292;126491;-66
2023/01/07 03:52:51;;;;;;;15.80;11.90;;;;;;;4.94;86.86;100169.27;208480;1284;141973;-67
2023/01/07 03:57:54;;;;;;;16.70;12.20;;;;;;;5.03;87.20;100173.23;208919;1292;141902;-67
2023/01/07 04:02:57;;;;;;;14.00;11.50;;;;;;;5.12;87.50;100172.45;209337;1285;141138;-65
2023/01/07 04:08:00;;;;;;;16.30;12.10;;;;;;;5.14;87.21;100174.47;208829;1278;140712;-67
2023/01/07 04:13:04;;;;;;;15.40;11.50;;;;;;;5.19;87.12;100180.70;208084;1300;140256;-66
2023/01/07 04:18:07;;;;;;;20.30;11.90;;;;;;;5.23;87.27;100173.40;207956;1293;154548;-66
2023/01/07 04:23:10;;;;;;;16.40;11.00;;;;;;;5.28;87.47;100179.34;207884;1284;141092;-66
2023/01/07 04:28:14;;;;;;;17.10;11.80;;;;;;;5.30;87.49;100179.98;209127;1286;141538;-66
2023/01/07 04:33:17;;;;;;;16.70;11.50;;;;;;;5.34;87.55;100174.41;209525;1287;141881;-69
2023/01/07 04:38:20;;;;;;;19.70;13.20;;;;;;;5.38;87.85;100170.83;207532;1294;230871;-68
2023/01/07 04:43:22;;;;;;;20.10;12.80;;;;;;;5.43;87.41;100168.55;207322;1286;143852;-68
2023/01/07 04:48:25;;;;;;;20.20;12.70;;;;;;;5.47;87.60;100174.34;207661;1286;141869;-68
2023/01/07 04:53:29;;;;;;;18.30;12.40;;;;;;;5.47;87.57;100176.36;207658;1286;139788;-66
2023/01/07 04:58:33;;;;;;;22.50;15.20;;;;;;;5.38;87.62;100175.10;209657;1286;140644;-67
2023/01/07 05:03:36;;;;;;;21.50;12.80;;;;;;;5.39;87.77;100181.45;210696;1288;141350;-67
2023/01/07 05:08:39;;;;;;;19.90;14.20;;;;;;;5.46;87.35;100191.04;210649;1291;140901;-67
2023/01/07 05:13:43;;;;;;;19.50;13.00;;;;;;;5.52;87.60;100190.14;210632;1298;141028;-68
2023/01/07 05:18:45;;;;;;;21.20;15.30;;;;;;;5.60;87.67;100188.38;210465;1295;139697;-68
2023/01/07 05:23:49;;;;;;;43.40;25.80;;;;;;;5.67;87.71;100187.63;210658;1295;140417;-67
2023/01/07 05:28:53;;;;;;;25.80;17.30;;;;;;;5.69;87.75;100181.45;209355;1299;141446;-67
2023/01/07 05:33:57;;;;;;;26.00;16.50;;;;;;;5.78;88.08;100184.42;208753;1294;154194;-66
2023/01/07 05:39:00;;;;;;;34.10;19.50;;;;;;;5.83;87.83;100184.27;208589;1292;141704;-67
2023/01/07 05:44:04;;;;;;;26.80;16.40;;;;;;;5.88;87.87;100182.38;208971;1293;140610;-68
2023/01/07 05:49:07;;;;;;;25.60;15.40;;;;;;;5.91;88.26;100187.53;209020;1291;141712;-69
2023/01/07 05:54:11;;;;;;;30.10;18.30;;;;;;;5.90;87.85;100192.77;208191;1292;140699;-67
2023/01/07 05:59:15;;;;;;;45.00;32.10;;;;;;;5.88;87.56;100198.45;208290;1296;140927;-66
2023/01/07 06:04:20;;;;;;;27.00;20.20;;;;;;;5.94;88.12;100192.31;208393;1294;141749;-67
2023/01/07 06:09:24;;;;;;;21.90;15.50;;;;;;;5.94;87.76;100197.56;207738;1286;139984;-65
2023/01/07 06:14:27;;;;;;;17.80;13.50;;;;;;;5.89;87.55;100205.02;207685;1284;141344;-67
2023/01/07 06:19:31;;;;;;;29.60;17.30;;;;;;;5.78;87.86;100210.84;208858;1286;139951;-64
2023/01/07 06:24:34;;;;;;;40.30;25.20;;;;;;;5.76;87.81;100218.38;208324;1292;140918;-66
2023/01/07 06:29:37;;;;;;;29.30;15.80;;;;;;;5.70;87.39;100225.98;208661;1291;140079;-66
2023/01/07 06:34:39;;;;;;;23.30;13.90;;;;;;;5.69;87.69;100223.20;209081;1295;140748;-66
2023/01/07 06:39:43;;;;;;;20.40;12.30;;;;;;;5.73;87.49;100221.82;209763;1295;140511;-66
2023/01/07 06:44:46;;;;;;;21.60;13.20;;;;;;;5.75;87.95;100229.70;207892;1286;152324;-66
2023/01/07 06:49:49;;;;;;;61.30;18.50;;;;;;;5.77;87.74;100235.65;210391;1291;140930;-67
2023/01/07 06:54:52;;;;;;;17.90;12.80;;;;;;;5.78;87.69;100234.31;210329;1296;141268;-67
2023/01/07 06:59:55;;;;;;;18.80;13.00;;;;;;;5.78;87.64;100236.30;210609;1298;140316;-67
2023/01/07 07:04:58;;;;;;;19.00;13.70;;;;;;;5.81;87.31;100234.77;210601;1290;139900;-67
2023/01/07 07:10:06;;;;;;;23.60;14.60;;;;;;;5.80;87.75;100231.39;210547;1299;149965;-67
2023/01/07 07:15:10;;;;;;;21.00;13.20;;;;;;;5.82;87.46;100235.88;210569;1301;140110;-66
2023/01/07 07:20:15;;;;;;;17.70;12.50;;;;;;;5.82;87.09;100246.09;209666;1285;140195;-67
2023/01/07 07:25:20;;;;;;;17.10;12.60;;;;;;;5.79;86.92;100247.99;209067;1295;140841;-68
2023/01/07 07:30:24;;;;;;;18.50;13.10;;;;;;;5.87;87.52;100252.08;209894;1295;140546;-68
2023/01/07 07:35:48;;;;;;;27.00;19.20;;;;;;;5.91;87.58;100253.11;209550;1284;218863;-66
2023/01/07 07:40:51;;;;;;;20.80;12.40;;;;;;;5.90;87.35;100253.80;209077;1289;140497;-68
2023/01/07 07:45:56;;;;;;;23.10;17.60;;;;;;;5.87;86.92;100254.65;208695;1286;141009;-69
2023/01/07 07:50:58;;;;;;;22.50;14.20;;;;;;;5.93;87.45;100255.08;210191;1295;141219;-68
2023/01/07 07:56:01;;;;;;;24.20;16.30;;;;;;;6.04;88.04;100262.83;207710;1284;141191;-67
2023/01/07 08:01:04;;;;;;;29.00;17.90;;;;;;;6.11;87.68;100263.16;207593;1294;140563;-65
2023/01/07 08:06:10;;;;;;;27.60;15.50;;;;;;;6.15;87.68;100262.61;209461;1294;236025;-66
2023/01/07 08:11:17;;;;;;;22.30;12.90;;;;;;;6.25;87.85;100269.70;208343;1292;141923;-66
2023/01/07 08:16:21;;;;;;;23.10;15.50;;;;;;;6.37;88.04;100272.02;208652;1288;141749;-66
2023/01/07 08:21:24;;;;;;;22.60;15.60;;;;;;;6.47;87.81;100266.56;208470;1287;140572;-67
2023/01/07 08:26:26;;;;;;;27.20;14.20;;;;;;;6.50;87.85;100262.71;209974;1298;139164;-68
2023/01/07 08:31:28;;;;;;;24.40;13.90;;;;;;;6.54;87.72;100265.59;208792;1285;140723;-66
2023/01/07 08:36:32;;;;;;;24.60;13.90;;;;;;;6.52;87.40;100261.27;210098;1296;679325;-65
2023/01/07 08:41:36;;;;;;;26.80;15.70;;;;;;;6.53;87.77;100255.16;208890;1298;140666;-66
2023/01/07 08:46:40;;;;;;;26.20;17.40;;;;;;;6.60;87.11;100251.24;208175;1293;139829;-66
2023/01/07 08:51:45;;;;;;;24.30;15.20;;;;;;;6.65;87.67;100248.66;210313;1298;139929;-66
2023/01/07 08:56:48;;;;;;;20.60;14.00;;;;;;;6.75;87.79;100248.98;210610;1293;140343;-68
2023/01/07 09:01:51;;;;;;;22.90;13.90;;;;;;;6.91;87.70;100248.69;210223;1298;140717;-67
2023/01/07 09:06:55;;;;;;;21.10;14.00;;;;;;;7.08;87.58;100255.76;210201;1295;140485;-70
2023/01/07 09:11:59;;;;;;;18.50;11.50;;;;;;;7.33;87.80;100256.67;210178;1294;153676;-68
2023/01/07 09:17:02;;;;;;;18.10;12.50;;;;;;;7.49;87.25;100251.28;209423;1295;144720;-64
2023/01/07 09:22:07;;;;;;;15.80;8.50;;;;;;;7.58;86.77;100245.14;208772;1284;161260;-68
2023/01/07 09:27:10;;;;;;;16.40;10.70;;;;;;;7.56;86.23;100231.59;210012;1287;140656;-67
2023/01/07 09:32:13;;;;;;;14.20;10.00;;;;;;;7.67;86.72;100230.32;209144;1285;140339;-66
2023/01/07 09:37:16;;;;;;;15.40;10.10;;;;;;;7.82;86.80;100223.51;208717;1290;141586;-67
2023/01/07 09:42:28;;;;;;;13.90;10.80;;;;;;;7.86;86.64;100226.52;207946;1286;140494;-64
2023/01/07 09:47:37;;;;;;;19.80;11.50;;;;;;;7.86;86.43;100227.10;209058;1294;140461;-67
2023/01/07 09:52:45;;;;;;;15.10;11.10;;;;;;;7.89;86.39;100224.86;208565;1292;142378;-67
2023/01/07 09:57:48;;;;;;;15.90;10.40;;;;;;;7.93;86.61;100226.69;207466;1279;139832;-67
2023/01/07 10:03:07;;;;;;;12.60;9.70;;;;;;;7.96;86.30;100234.73;208227;1286;141526;-67
2023/01/07 10:08:36;;;;;;;21.30;12.20;;;;;;;7.93;86.39;100236.62;208453;1286;140537;-67
2023/01/07 10:14:13;;;;;;;21.20;10.90;;;;;;;7.89;86.13;100241.36;207815;1291;140383;-66
2023/01/07 10:19:26;;;;;;;17.80;12.30;;;;;;;7.91;86.66;100247.12;208924;1292;141834;-67
2023/01/07 10:24:58;;;;;;;21.10;12.10;;;;;;;7.85;86.42;100239.52;209131;1282;140934;-67
2023/01/07 10:30:06;;;;;;;20.10;11.50;;;;;;;7.77;86.06;100228.23;209913;1292;142155;-68
2023/01/07 10:35:16;;;;;;;16.80;9.40;;;;;;;7.79;86.44;100221.58;209873;1285;141632;-67
2023/01/07 10:40:23;;;;;;;14.80;10.50;;;;;;;7.81;86.41;100219.38;208878;1278;141516;-67
2023/01/07 10:45:41;;;;;;;13.60;9.80;;;;;;;7.96;86.89;100216.14;209077;1284;140362;-67
2023/01/07 10:50:49;;;;;;;16.90;11.40;;;;;;;8.08;87.08;100212.05;209881;1292;139885;-68
2023/01/07 10:56:23;;;;;;;16.50;12.20;;;;;;;7.97;86.59;100197.84;210684;1292;139856;-68
2023/01/07 11:01:55;;;;;;;14.00;10.10;;;;;;;7.99;86.38;100191.83;210610;1295;141946;-68
2023/01/07 11:07:06;;;;;;;12.50;8.80;;;;;;;8.06;86.38;100186.07;210588;1287;140947;-68
2023/01/07 11:12:31;;;;;;;16.30;10.80;;;;;;;8.15;86.33;100182.41;209927;1286;140939;-66
2023/01/07 11:17:36;;;;;;;16.10;9.50;;;;;;;8.27;86.32;100176.21;208876;1291;140658;-67
2023/01/07 11:22:40;;;;;;;19.70;12.00;;;;;;;8.42;86.60;100180.53;209169;1290;139372;-68
2023/01/07 11:27:44;;;;;;;19.60;11.80;;;;;;;8.51;86.36;100181.23;207770;1280;140543;-67
2023/01/07 11:33:06;;;;;;;13.70;8.80;;;;;;;8.53;86.30;100179.02;208276;1291;140163;-67
2023/01/07 11:38:31;;;;;;;20.90;12.50;;;;;;;8.45;86.02;100171.98;208679;1284;139717;-67
2023/01/07 11:43:38;;;;;;;19.10;12.00;;;;;;;8.49;86.20;100169.60;208314;1292;140254;-68
2023/01/07 11:48:59;;;;;;;15.70;11.00;;;;;;;8.50;85.98;100158.67;207743;1285;140472;-69
2023/01/07 11:54:02;;;;;;;22.60;13.60;;;;;;;8.44;86.15;100152.73;207625;1283;142375;-68
2023/01/07 11:59:12;;;;;;;14.80;10.80;;;;;;;8.51;86.29;100152.80;208663;1284;152198;-68
2023/01/07 12:04:24;;;;;;;18.90;13.50;;;;;;;8.50;85.74;100142.00;208193;1284;141671;-68
2023/01/07 12:09:35;;;;;;;21.90;14.60;;;;;;;8.48;85.55;100137.77;208136;1292;141480;-68
2023/01/07 12:14:40;;;;;;;20.10;13.00;;;;;;;8.57;86.10;100133.21;207892;1284;140119;-68
2023/01/07 12:20:04;;;;;;;17.80;11.00;;;;;;;8.66;85.66;100130.17;208449;1290;140893;-69
2023/01/07 12:25:33;;;;;;;17.00;11.50;;;;;;;8.51;85.08;100121.08;209027;1292;140525;-68
2023/01/07 12:30:53;;;;;;;17.10;10.50;;;;;;;8.46;84.98;100113.77;208637;1294;141403;-68
2023/01/07 12:36:03;;;;;;;32.90;15.60;;;;;;;8.42;85.03;100116.20;210607;1287;142154;-68
2023/01/07 12:41:21;;;;;;;19.40;13.70;;;;;;;8.48;85.49;100110.63;209236;1292;159197;-68
2023/01/07 12:46:29;;;;;;;21.70;15.00;;;;;;;8.52;85.11;100102.30;210396;1295;141183;-69
2023/01/07 12:51:45;;;;;;;21.50;14.40;;;;;;;8.56;85.22;100104.04;209573;1292;140251;-68
2023/01/07 12:57:10;;;;;;;22.10;14.60;;;;;;;8.62;85.27;100099.08;210477;1293;140185;-68
2023/01/07 13:02:39;;;;;;;18.80;14.90;;;;;;;8.56;85.05;100104.69;210359;1294;141036;-68
2023/01/07 13:08:38;;;;;;;18.20;11.90;;;;;;;8.56;85.11;100101.02;210277;1295;140540;-66
2023/01/07 13:13:49;;;;;;;20.30;13.70;;;;;;;8.54;84.66;100103.43;209271;1297;140707;-67
2023/01/07 13:18:55;;;;;;;17.20;11.70;;;;;;;8.48;85.11;100097.05;208490;1288;141317;-66
2023/01/07 13:24:21;;;;;;;19.80;13.50;;;;;;;8.53;85.18;100091.48;207926;1298;140637;-67
2023/01/07 13:30:02;;;;;;;17.90;12.00;;;;;;;8.51;85.03;100088.05;208193;1284;235886;-69
2023/01/07 13:35:27;;;;;;;19.00;14.80;;;;;;;8.40;85.12;100076.23;207548;1291;141077;-66
2023/01/07 13:41:06;;;;;;;19.80;14.60;;;;;;;8.41;85.30;100080.52;207271;1287;230010;-71
2023/01/07 13:46:21;;;;;;;17.20;11.90;;;;;;;8.41;85.35;100086.69;208188;1284;140480;-71
2023/01/07 13:51:36;;;;;;;23.40;14.00;;;;;;;8.43;85.58;100093.14;207232;1285;140224;-71
2023/01/07 13:56:39;;;;;;;24.40;15.10;;;;;;;8.48;85.74;100095.26;207605;1285;140799;-71
2023/01/07 14:02:16;;;;;;;21.20;14.10;;;;;;;8.45;85.35;100092.11;207572;1285;246133;-70
2023/01/07 14:07:22;;;;;;;20.00;13.60;;;;;;;8.39;85.37;100096.71;207880;1285;139753;-69
2023/01/07 14:12:47;;;;;;;19.60;13.30;;;;;;;8.34;85.66;100093.02;208076;1284;140283;-67
2023/01/07 14:18:37;;;;;;;20.60;13.30;;;;;;;8.32;85.56;100096.08;209260;1285;140090;-66
2023/01/07 14:23:56;;;;;;;19.50;13.90;;;;;;;8.34;85.53;100104.00;209398;1292;140853;-65
2023/01/07 14:29:19;;;;;;;20.60;14.00;;;;;;;8.35;85.53;100106.94;208294;1285;141677;-67
2023/01/07 14:34:25;;;;;;;21.90;15.10;;;;;;;8.27;85.38;100102.38;208615;1271;139988;-66
2023/01/07 14:39:43;;;;;;;20.90;14.60;;;;;;;8.20;85.56;100102.62;209213;1285;139535;-68
2023/01/07 14:44:50;;;;;;;24.60;14.20;;;;;;;8.14;85.31;100104.31;208109;1292;140377;-69
2023/01/07 14:50:12;;;;;;;24.40;16.50;;;;;;;8.13;85.56;100098.27;209720;1285;140628;-68
2023/01/07 14:55:49;;;;;;;28.20;17.20;;;;;;;8.16;85.59;100098.05;210030;1290;140025;-66
2023/01/07 15:01:04;;;;;;;25.40;17.50;;;;;;;8.11;85.38;100090.19;210503;1294;243344;-66
2023/01/07 15:06:21;;;;;;;27.30;16.90;;;;;;;8.02;85.17;100081.99;209863;1291;141406;-66
2023/01/07 15:16:52;;;;;;;27.80;18.30;;;;;;;7.94;85.71;100078.90;208063;1295;140941;-67
2023/01/07 15:22:22;;;;;;;21.20;14.60;;;;;;;7.86;85.44;100076.95;209129;1278;139809;-68
2023/01/07 15:27:43;;;;;;;24.50;15.60;;;;;;;7.81;85.29;100079.83;208888;1295;143252;-68
2023/01/07 15:33:16;;;;;;;25.40;14.30;;;;;;;7.78;85.62;100077.58;208700;1293;140636;-67
2023/01/07 15:38:45;;;;;;;25.50;16.20;;;;;;;7.70;85.67;100074.41;207725;1284;140490;-68
2023/01/07 15:43:52;;;;;;;20.10;13.40;;;;;;;7.63;85.78;100074.92;207823;1279;141413;-67
2023/01/07 15:49:14;;;;;;;19.00;13.80;;;;;;;7.56;85.78;100070.94;209058;1289;140292;-68
2023/01/07 15:54:28;;;;;;;28.60;18.70;;;;;;;7.47;86.25;100067.35;207688;1288;161266;-68
2023/01/07 15:59:36;;;;;;;27.20;17.50;;;;;;;7.44;86.20;100067.69;209331;1295;139825;-67
2023/01/07 16:04:42;;;;;;;38.80;22.60;;;;;;;7.38;85.94;100067.98;208045;1292;140562;-66
2023/01/07 16:09:48;;;;;;;42.10;22.30;;;;;;;7.32;86.27;100063.95;208794;1291;140544;-68
2023/01/07 16:14:51;;;;;;;30.90;19.40;;;;;;;7.26;86.36;100058.33;208655;1286;141193;-68
2023/01/07 16:20:40;;;;;;;27.10;16.20;;;;;;;7.21;86.52;100057.84;207738;1287;221442;-67
2023/01/07 16:26:00;;;;;;;22.90;15.40;;;;;;;7.18;86.41;100056.48;209352;1285;162300;-67
2023/01/07 16:31:06;;;;;;;27.30;16.60;;;;;;;7.15;86.84;100058.94;208476;1278;139359;-67
2023/01/07 16:36:22;;;;;;;29.20;17.80;;;;;;;7.12;86.57;100054.61;210196;1294;140558;-66
2023/01/07 16:41:28;;;;;;;25.50;17.90;;;;;;;7.13;86.52;100059.23;209415;1284;141460;-67
2023/01/07 16:46:37;;;;;;;34.10;20.20;;;;;;;7.11;86.83;100057.47;210478;1285;141226;-68
2023/01/07 16:51:49;;;;;;;34.80;20.70;;;;;;;7.11;87.47;100054.81;210552;1287;140552;-67
2023/01/07 16:57:18;;;;;;;26.90;19.70;;;;;;;7.13;87.17;100048.25;210624;1295;139623;-68
2023/01/07 17:02:47;;;;;;;33.00;20.50;;;;;;;7.15;87.10;100043.64;210333;1292;140944;-69
2023/01/07 17:07:57;;;;;;;43.00;21.00;;;;;;;7.20;87.12;100045.16;209492;1285;140482;-68
2023/01/07 17:13:23;;;;;;;38.80;22.90;;;;;;;7.24;87.05;100047.44;209415;1288;141289;-68
2023/01/07 17:18:28;;;;;;;33.60;20.50;;;;;;;7.25;87.31;100048.30;209232;1294;141195;-67
2023/01/07 17:23:37;;;;;;;38.60;26.20;;;;;;;7.23;87.41;100047.39;208253;1285;140628;-69
2023/01/07 17:28:56;;;;;;;46.20;28.00;;;;;;;7.20;87.27;100041.89;207814;1286;139794;-69
2023/01/07 17:33:58;;;;;;;34.60;25.30;;;;;;;7.20;86.85;100035.12;207569;1278;140849;-67
2023/01/07 17:39:03;;;;;;;40.80;27.50;;;;;;;7.15;87.49;100032.02;208232;1286;140390;-67
2023/01/07 17:44:13;;;;;;;35.90;25.40;;;;;;;7.07;87.18;100034.63;208124;1284;140610;-67
2023/01/07 17:49:15;;;;;;;42.00;26.60;;;;;;;7.03;87.44;100033.01;208572;1278;141162;-67
2023/01/07 17:54:22;;;;;;;48.30;29.20;;;;;;;6.99;87.18;100032.40;207779;1284;140270;-67
2023/01/07 17:59:27;;;;;;;46.90;25.90;;;;;;;6.89;87.10;100040.06;207989;1286;140433;-65
2023/01/07 18:04:32;;;;;;;49.00;31.60;;;;;;;6.76;87.27;100040.48;209161;1292;143888;-65
2023/01/07 18:09:35;;;;;;;47.60;29.30;;;;;;;6.71;87.12;100037.13;207825;1284;140901;-67
2023/01/07 18:14:40;;;;;;;41.20;27.70;;;;;;;6.69;87.20;100033.58;209152;1286;139968;-64
2023/01/07 18:19:44;;;;;;;53.00;31.20;;;;;;;6.61;87.88;100030.79;209401;1285;140985;-67
2023/01/07 18:24:50;;;;;;;59.40;33.00;;;;;;;6.60;87.44;100037.50;207951;1285;140852;-66
2023/01/07 18:29:53;;;;;;;54.30;31.10;;;;;;;6.60;87.45;100033.34;210439;1271;140873;-67
2023/01/07 18:34:57;;;;;;;52.60;33.00;;;;;;;6.63;87.86;100030.95;208823;1291;152556;-67
2023/01/07 18:40:01;;;;;;;49.60;29.50;;;;;;;6.65;88.03;100034.91;209230;1278;140640;-67
2023/01/07 18:45:05;;;;;;;55.10;32.40;;;;;;;6.60;87.80;100035.59;210007;1278;140259;-66
2023/01/07 18:50:08;;;;;;;51.30;33.20;;;;;;;6.56;87.56;100037.38;210412;1294;141976;-66
2023/01/07 18:55:16;;;;;;;52.40;30.50;;;;;;;6.56;87.63;100032.77;210543;1292;141473;-67
2023/01/07 19:00:20;;;;;;;50.30;30.00;;;;;;;6.59;87.99;100024.02;210364;1294;140582;-68
2023/01/07 19:05:27;;;;;;;55.50;33.70;;;;;;;6.57;87.69;100018.87;208738;1284;140641;-66
2023/01/07 19:10:30;;;;;;;48.90;31.80;;;;;;;6.57;87.91;100019.77;208961;1284;142529;-66
2023/01/07 19:15:33;;;;;;;49.90;32.80;;;;;;;6.56;87.42;100016.31;208672;1291;141797;-67
2023/01/07 19:20:36;;;;;;;52.10;33.00;;;;;;;6.53;87.71;100012.75;209563;1291;140394;-66
2023/01/07 19:25:39;;;;;;;47.30;30.80;;;;;;;6.53;87.78;100009.41;209316;1291;140680;-67
2023/01/07 19:30:42;;;;;;;48.70;32.20;;;;;;;6.56;88.32;100006.52;210056;1292;140313;-68
2023/01/07 19:35:45;;;;;;;35.60;22.50;;;;;;;6.59;88.27;100004.62;208088;1298;140644;-68
2023/01/07 19:40:49;;;;;;;49.60;32.20;;;;;;;6.56;88.01;100002.58;207401;1293;152774;-67
2023/01/07 19:45:54;;;;;;;53.30;31.70;;;;;;;6.49;87.92;99994.04;207324;1292;142922;-69
2023/01/07 19:51:01;;;;;;;55.30;33.80;;;;;;;6.43;87.60;99987.15;207616;1291;141087;-68
2023/01/07 19:56:08;;;;;;;52.20;34.70;;;;;;;6.35;87.79;99981.08;207554;1284;140551;-66
2023/01/07 20:01:14;;;;;;;58.20;33.50;;;;;;;6.16;87.16;99977.13;209345;1284;140962;-67
2023/01/07 20:06:22;;;;;;;56.80;33.90;;;;;;;5.95;87.17;99975.34;207474;1285;140448;-69
2023/01/07 20:11:27;;;;;;;56.20;36.70;;;;;;;5.83;87.34;99972.50;207764;1285;140934;-65
2023/01/07 20:16:35;;;;;;;56.60;38.20;;;;;;;5.75;87.38;99970.26;208804;1284;140239;-68
2023/01/07 20:21:39;;;;;;;61.70;40.30;;;;;;;5.63;87.68;99966.70;209169;1292;139646;-67
2023/01/07 20:26:43;;;;;;;61.80;36.90;;;;;;;5.55;87.67;99966.58;208967;1291;140195;-66
2023/01/07 20:31:46;;;;;;;55.80;35.90;;;;;;;5.48;87.52;99969.28;210184;1285;139524;-65
2023/01/07 20:36:48;;;;;;;57.80;37.50;;;;;;;5.32;87.04;99965.41;209136;1284;988274;-66
2023/01/07 20:41:51;;;;;;;143.90;58.70;;;;;;;5.15;87.10;99961.61;208596;1293;141270;-67
2023/01/07 20:46:54;;;;;;;82.10;41.20;;;;;;;5.03;87.34;99956.25;210541;1284;143466;-69
2023/01/07 20:51:57;;;;;;;76.50;45.20;;;;;;;4.95;87.57;99956.09;210061;1287;140539;-62
2023/01/07 20:57:01;;;;;;;62.70;41.90;;;;;;;4.94;87.79;99956.46;209214;1285;139619;-68
2023/01/07 21:02:06;;;;;;;59.60;41.80;;;;;;;4.97;87.52;99961.56;210300;1294;142170;-68
2023/01/07 21:07:09;;;;;;;63.50;38.70;;;;;;;4.93;87.31;99958.89;209865;1295;141952;-64
2023/01/07 21:12:16;;;;;;;128.50;59.40;;;;;;;4.90;87.31;99955.50;208860;1284;139983;-66
2023/01/07 21:17:21;;;;;;;194.40;76.40;;;;;;;4.74;87.26;99951.00;209131;1286;140844;-67
2023/01/07 21:22:28;;;;;;;88.30;49.50;;;;;;;4.59;87.44;99954.21;208091;1286;140034;-65
2023/01/07 21:27:42;;;;;;;57.80;33.90;;;;;;;4.49;87.21;99951.09;207989;1292;235174;-66
2023/01/07 21:32:47;;;;;;;46.70;35.40;;;;;;;4.34;87.08;99946.43;208832;1289;246029;-65
2023/01/07 21:37:54;;;;;;;55.40;34.70;;;;;;;4.20;87.25;99945.02;209243;1275;139196;-66
2023/01/07 21:42:59;;;;;;;44.40;27.40;;;;;;;4.08;87.55;99944.36;209119;1286;139857;-70
2023/01/07 21:48:02;;;;;;;43.70;33.60;;;;;;;4.04;87.84;99940.49;209042;1291;142034;-69
2023/01/07 21:53:05;;;;;;;60.00;34.70;;;;;;;3.99;87.87;99934.89;208319;1284;141778;-67
2023/01/07 21:58:08;;;;;;;56.30;35.70;;;;;;;3.91;87.88;99928.85;208648;1291;139908;-64
2023/01/07 22:03:10;;;;;;;60.00;35.00;;;;;;;3.84;88.10;99932.21;208588;1284;139695;-68
2023/01/07 22:08:13;;;;;;;52.00;34.40;;;;;;;3.76;88.09;99928.59;208461;1278;141654;-67
2023/01/07 22:13:15;;;;;;;46.30;32.10;;;;;;;3.69;88.33;99931.06;208426;1292;143068;-68
2023/01/07 22:18:19;;;;;;;51.20;32.80;;;;;;;3.65;88.42;99926.94;207964;1292;140469;-66
2023/01/07 22:23:22;;;;;;;48.50;29.30;;;;;;;3.62;88.74;99924.84;208717;1284;140432;-65
2023/01/07 22:28:25;;;;;;;62.90;35.60;;;;;;;3.55;88.81;99920.98;209810;1291;142209;-65
2023/01/07 22:33:28;;;;;;;58.20;34.60;;;;;;;3.48;88.86;99920.24;208580;1291;140857;-66
2023/01/07 22:38:30;;;;;;;55.20;32.50;;;;;;;3.43;88.72;99915.39;210542;1301;141752;-68
2023/01/07 22:43:37;;;;;;;61.20;34.90;;;;;;;3.38;88.81;99907.91;210606;1294;250612;-68
2023/01/07 22:48:40;;;;;;;;;;;;;;;3.33;88.82;99903.52;210579;1293;141472;-68
2023/01/07 22:53:45;;;;;;;54.00;32.10;;;;;;;3.31;89.07;99894.91;210667;1293;126400;-67
2023/01/07 22:58:48;;;;;;;48.40;32.80;;;;;;;3.35;88.97;99890.22;208548;1291;140111;-65
2023/01/07 23:03:52;;;;;;;45.60;31.00;;;;;;;3.36;89.10;99888.13;209550;1290;142808;-66
2023/01/07 23:08:54;;;;;;;49.60;31.40;;;;;;;3.34;89.01;99880.64;210136;1292;139999;-65
2023/01/07 23:14:00;;;;;;;64.20;33.80;;;;;;;3.31;88.90;99872.77;208904;1284;140413;-65
2023/01/07 23:19:03;;;;;;;51.40;30.90;;;;;;;3.32;89.01;99866.64;208874;1298;141006;-66
2023/01/07 23:24:07;;;;;;;51.00;30.90;;;;;;;3.32;88.92;99857.36;208498;1285;141636;-66